sensor_id;sensor_type;location;lat;lon;timestamp;P1;durP1;ratioP1;P2;durP2;ratioP2
18804;SDS011;9530;48.930;9.526;2023-01-08T00:01:51;6.27;;;4.00;;
18804;SDS011;9530;48.930;9.526;2023-01-08T00:04:19;4.67;;;3.40;;
18804;SDS011;9530;48.930;9.526;2023-01-08T00:06:46;5.10;;;3.70;;
18804;SDS011;9530;48.930;9.526;2023-01-08T00:09:13;5.10;;;3.50;;
18804;SDS011;9530;48.930;9.526;2023-01-08T00:11:40;7.73;;;3.80;;
18804;SDS011;9530;48.930;9.526;2023-01-08T00:14:08;5.33;;;3.83;;
18804;SDS011;9530;48.930;9.526;2023-01-08T00:16:36;4.90;;;3.30;;
18804;SDS011;9530;48.930;9.526;2023-01-08T00:19:03;4.13;;;3.73;;
18804;SDS011;9530;48.930;9.526;2023-01-08T00:21:30;5.97;;;3.30;;
18804;SDS011;9530;48.930;9.526;2023-01-08T00:23:57;4.40;;;3.40;;
18804;SDS011;9530;48.930;9.526;2023-01-08T00:26:24;4.17;;;3.23;;
18804;SDS011;9530;48.930;9.526;2023-01-08T00:28:51;3.97;;;3.30;;
18804;SDS011;9530;48.930;9.526;2023-01-08T00:31:18;8.63;;;3.80;;
18804;SDS011;9530;48.930;9.526;2023-01-08T00:33:47;3.80;;;3.20;;
18804;SDS011;9530;48.930;9.526;2023-01-08T00:36:15;4.90;;;3.50;;
18804;SDS011;9530;48.930;9.526;2023-01-08T00:38:42;3.37;;;2.87;;
18804;SDS011;9530;48.930;9.526;2023-01-08T00:41:09;7.80;;;4.37;;
18804;SDS011;9530;48.930;9.526;2023-01-08T00:43:38;6.40;;;3.87;;
18804;SDS011;9530;48.930;9.526;2023-01-08T00:46:05;4.50;;;3.87;;
18804;SDS011;9530;48.930;9.526;2023-01-08T00:48:32;4.73;;;3.80;;
18804;SDS011;9530;48.930;9.526;2023-01-08T00:51:04;4.67;;;4.07;;
18804;SDS011;9530;48.930;9.526;2023-01-08T00:53:31;4.53;;;3.70;;
18804;SDS011;9530;48.930;9.526;2023-01-08T00:55:59;4.80;;;3.80;;
18804;SDS011;9530;48.930;9.526;2023-01-08T00:58:26;5.50;;;4.13;;
18804;SDS011;9530;48.930;9.526;2023-01-08T01:00:53;5.53;;;4.07;;
18804;SDS011;9530;48.930;9.526;2023-01-08T01:03:20;5.70;;;4.17;;
18804;SDS011;9530;48.930;9.526;2023-01-08T01:05:47;5.63;;;4.30;;
18804;SDS011;9530;48.930;9.526;2023-01-08T01:08:16;6.43;;;4.20;;
18804;SDS011;9530;48.930;9.526;2023-01-08T01:10:43;5.00;;;3.97;;
18804;SDS011;9530;48.930;9.526;2023-01-08T01:13:10;5.77;;;4.20;;
18804;SDS011;9530;48.930;9.526;2023-01-08T01:15:37;5.80;;;3.57;;
18804;SDS011;9530;48.930;9.526;2023-01-08T01:18:03;4.73;;;3.60;;
18804;SDS011;9530;48.930;9.526;2023-01-08T01:20:30;6.47;;;3.80;;
18804;SDS011;9530;48.930;9.526;2023-01-08T01:22:57;4.70;;;3.63;;
18804;SDS011;9530;48.930;9.526;2023-01-08T01:25:25;4.30;;;3.50;;
18804;SDS011;9530;48.930;9.526;2023-01-08T01:27:52;4.43;;;3.70;;
18804;SDS011;9530;48.930;9.526;2023-01-08T01:30:19;5.17;;;3.70;;
18804;SDS011;9530;48.930;9.526;2023-01-08T01:32:45;6.10;;;3.70;;
18804;SDS011;9530;48.930;9.526;2023-01-08T01:35:12;5.07;;;3.93;;
18804;SDS011;9530;48.930;9.526;2023-01-08T01:37:39;4.20;;;3.50;;
18804;SDS011;9530;48.930;9.526;2023-01-08T01:40:06;4.87;;;3.43;;
18804;SDS011;9530;48.930;9.526;2023-01-08T01:42:34;4.73;;;3.67;;
18804;SDS011;9530;48.930;9.526;2023-01-08T01:45:15;4.67;;;3.57;;
18804;SDS011;9530;48.930;9.526;2023-01-08T01:47:45;4.00;;;3.40;;
18804;SDS011;9530;48.930;9.526;2023-01-08T01:50:15;5.73;;;3.57;;
18804;SDS011;9530;48.930;9.526;2023-01-08T01:52:46;5.47;;;3.70;;
18804;SDS011;9530;48.930;9.526;2023-01-08T01:55:16;5.07;;;3.47;;
18804;SDS011;9530;48.930;9.526;2023-01-08T01:57:48;4.90;;;3.43;;
18804;SDS011;9530;48.930;9.526;2023-01-08T02:00:18;5.17;;;3.87;;
18804;SDS011;9530;48.930;9.526;2023-01-08T02:02:47;4.17;;;3.20;;
18804;SDS011;9530;48.930;9.526;2023-01-08T02:05:14;8.90;;;3.90;;
18804;SDS011;9530;48.930;9.526;2023-01-08T02:07:42;4.90;;;3.70;;
18804;SDS011;9530;48.930;9.526;2023-01-08T02:10:17;4.80;;;3.67;;
18804;SDS011;9530;48.930;9.526;2023-01-08T02:12:49;5.40;;;3.30;;
18804;SDS011;9530;48.930;9.526;2023-01-08T02:15:22;5.03;;;3.20;;
18804;SDS011;9530;48.930;9.526;2023-01-08T02:17:54;4.20;;;3.30;;
18804;SDS011;9530;48.930;9.526;2023-01-08T02:20:30;5.07;;;3.43;;
18804;SDS011;9530;48.930;9.526;2023-01-08T02:23:06;4.50;;;3.23;;
18804;SDS011;9530;48.930;9.526;2023-01-08T02:28:39;4.27;;;3.23;;
18804;SDS011;9530;48.930;9.526;2023-01-08T02:31:10;3.90;;;3.20;;
18804;SDS011;9530;48.930;9.526;2023-01-08T02:33:37;5.97;;;3.37;;
18804;SDS011;9530;48.930;9.526;2023-01-08T02:36:14;3.87;;;3.07;;
18804;SDS011;9530;48.930;9.526;2023-01-08T02:38:58;3.80;;;2.83;;
18804;SDS011;9530;48.930;9.526;2023-01-08T02:41:59;3.70;;;3.00;;
18804;SDS011;9530;48.930;9.526;2023-01-08T02:44:36;5.03;;;2.80;;
18804;SDS011;9530;48.930;9.526;2023-01-08T02:47:18;4.40;;;3.00;;
18804;SDS011;9530;48.930;9.526;2023-01-08T02:49:50;3.40;;;2.70;;
18804;SDS011;9530;48.930;9.526;2023-01-08T02:52:21;3.90;;;2.93;;
18804;SDS011;9530;48.930;9.526;2023-01-08T02:54:52;4.13;;;3.07;;
18804;SDS011;9530;48.930;9.526;2023-01-08T02:57:21;4.93;;;2.90;;
18804;SDS011;9530;48.930;9.526;2023-01-08T02:59:49;4.73;;;2.63;;
18804;SDS011;9530;48.930;9.526;2023-01-08T03:02:16;3.23;;;2.63;;
18804;SDS011;9530;48.930;9.526;2023-01-08T03:04:45;3.10;;;2.50;;
18804;SDS011;9530;48.930;9.526;2023-01-08T03:07:17;4.00;;;2.90;;
18804;SDS011;9530;48.930;9.526;2023-01-08T03:09:44;4.23;;;2.63;;
18804;SDS011;9530;48.930;9.526;2023-01-08T03:12:14;4.60;;;3.20;;
18804;SDS011;9530;48.930;9.526;2023-01-08T03:14:46;4.30;;;3.10;;
18804;SDS011;9530;48.930;9.526;2023-01-08T03:17:20;4.43;;;3.20;;
18804;SDS011;9530;48.930;9.526;2023-01-08T03:19:52;4.80;;;3.13;;
18804;SDS011;9530;48.930;9.526;2023-01-08T03:22:21;4.50;;;3.20;;
18804;SDS011;9530;48.930;9.526;2023-01-08T03:24:50;5.07;;;3.40;;
18804;SDS011;9530;48.930;9.526;2023-01-08T03:27:19;5.23;;;2.90;;
18804;SDS011;9530;48.930;9.526;2023-01-08T03:29:50;4.57;;;3.70;;
18804;SDS011;9530;48.930;9.526;2023-01-08T03:32:19;4.27;;;3.30;;
18804;SDS011;9530;48.930;9.526;2023-01-08T03:34:49;4.40;;;3.03;;
18804;SDS011;9530;48.930;9.526;2023-01-08T03:37:20;4.97;;;3.17;;
18804;SDS011;9530;48.930;9.526;2023-01-08T03:39:51;3.47;;;2.73;;
18804;SDS011;9530;48.930;9.526;2023-01-08T03:42:21;5.07;;;2.97;;
18804;SDS011;9530;48.930;9.526;2023-01-08T03:44:48;5.13;;;3.33;;
18804;SDS011;9530;48.930;9.526;2023-01-08T03:47:16;3.60;;;2.87;;
18804;SDS011;9530;48.930;9.526;2023-01-08T03:49:45;3.23;;;2.70;;
18804;SDS011;9530;48.930;9.526;2023-01-08T03:52:19;3.93;;;2.77;;
18804;SDS011;9530;48.930;9.526;2023-01-08T03:54:47;3.70;;;2.77;;
18804;SDS011;9530;48.930;9.526;2023-01-08T03:57:14;4.17;;;2.70;;
18804;SDS011;9530;48.930;9.526;2023-01-08T03:59:40;4.27;;;3.10;;
18804;SDS011;9530;48.930;9.526;2023-01-08T04:02:07;4.30;;;3.37;;
18804;SDS011;9530;48.930;9.526;2023-01-08T04:04:35;5.13;;;2.87;;
18804;SDS011;9530;48.930;9.526;2023-01-08T04:07:02;8.20;;;4.43;;
18804;SDS011;9530;48.930;9.526;2023-01-08T04:09:29;6.00;;;4.40;;
18804;SDS011;9530;48.930;9.526;2023-01-08T04:11:55;6.63;;;4.77;;
18804;SDS011;9530;48.930;9.526;2023-01-08T04:14:22;5.27;;;3.97;;
18804;SDS011;9530;48.930;9.526;2023-01-08T04:16:49;5.37;;;3.53;;
18804;SDS011;9530;48.930;9.526;2023-01-08T04:19:15;4.33;;;3.53;;
18804;SDS011;9530;48.930;9.526;2023-01-08T04:21:43;4.93;;;3.70;;
18804;SDS011;9530;48.930;9.526;2023-01-08T04:24:10;6.07;;;3.80;;
18804;SDS011;9530;48.930;9.526;2023-01-08T04:26:37;7.13;;;4.13;;
18804;SDS011;9530;48.930;9.526;2023-01-08T04:29:04;3.90;;;3.40;;
18804;SDS011;9530;48.930;9.526;2023-01-08T04:31:30;5.20;;;2.60;;
18804;SDS011;9530;48.930;9.526;2023-01-08T04:33:57;3.97;;;2.97;;
18804;SDS011;9530;48.930;9.526;2023-01-08T04:36:24;3.20;;;2.80;;
18804;SDS011;9530;48.930;9.526;2023-01-08T04:38:52;3.77;;;3.00;;
18804;SDS011;9530;48.930;9.526;2023-01-08T04:41:19;3.70;;;3.03;;
18804;SDS011;9530;48.930;9.526;2023-01-08T04:43:45;7.50;;;3.17;;
18804;SDS011;9530;48.930;9.526;2023-01-08T04:46:12;4.70;;;3.13;;
18804;SDS011;9530;48.930;9.526;2023-01-08T04:48:39;4.37;;;3.20;;
18804;SDS011;9530;48.930;9.526;2023-01-08T04:51:05;4.07;;;2.90;;
18804;SDS011;9530;48.930;9.526;2023-01-08T04:53:33;3.47;;;2.87;;
18804;SDS011;9530;48.930;9.526;2023-01-08T04:56:03;7.07;;;5.00;;
18804;SDS011;9530;48.930;9.526;2023-01-08T04:58:31;5.60;;;4.53;;
18804;SDS011;9530;48.930;9.526;2023-01-08T05:00:59;7.50;;;5.00;;
18804;SDS011;9530;48.930;9.526;2023-01-08T05:03:25;6.83;;;4.67;;
18804;SDS011;9530;48.930;9.526;2023-01-08T05:05:52;7.00;;;4.67;;
18804;SDS011;9530;48.930;9.526;2023-01-08T05:08:19;6.03;;;4.53;;
18804;SDS011;9530;48.930;9.526;2023-01-08T05:10:45;6.20;;;4.30;;
18804;SDS011;9530;48.930;9.526;2023-01-08T05:13:13;5.60;;;4.17;;
18804;SDS011;9530;48.930;9.526;2023-01-08T05:15:40;6.13;;;4.10;;
18804;SDS011;9530;48.930;9.526;2023-01-08T05:18:06;7.73;;;4.03;;
18804;SDS011;9530;48.930;9.526;2023-01-08T05:20:34;5.60;;;4.27;;
18804;SDS011;9530;48.930;9.526;2023-01-08T05:23:01;5.97;;;4.17;;
18804;SDS011;9530;48.930;9.526;2023-01-08T05:25:28;4.97;;;4.07;;
18804;SDS011;9530;48.930;9.526;2023-01-08T05:27:54;4.50;;;3.57;;
18804;SDS011;9530;48.930;9.526;2023-01-08T05:30:22;4.70;;;3.40;;
18804;SDS011;9530;48.930;9.526;2023-01-08T05:32:49;3.53;;;2.70;;
18804;SDS011;9530;48.930;9.526;2023-01-08T05:35:16;4.00;;;2.70;;
18804;SDS011;9530;48.930;9.526;2023-01-08T05:37:43;4.17;;;2.90;;
18804;SDS011;9530;48.930;9.526;2023-01-08T05:40:10;3.33;;;2.57;;
18804;SDS011;9530;48.930;9.526;2023-01-08T05:42:37;3.87;;;2.50;;
18804;SDS011;9530;48.930;9.526;2023-01-08T05:45:04;3.33;;;2.67;;
18804;SDS011;9530;48.930;9.526;2023-01-08T05:47:34;3.07;;;2.40;;
18804;SDS011;9530;48.930;9.526;2023-01-08T05:50:00;3.93;;;2.70;;
18804;SDS011;9530;48.930;9.526;2023-01-08T05:52:27;3.33;;;2.40;;
18804;SDS011;9530;48.930;9.526;2023-01-08T05:54:54;4.40;;;2.53;;
18804;SDS011;9530;48.930;9.526;2023-01-08T05:57:21;5.00;;;2.60;;
18804;SDS011;9530;48.930;9.526;2023-01-08T05:59:48;3.80;;;2.50;;
18804;SDS011;9530;48.930;9.526;2023-01-08T06:02:14;4.00;;;2.70;;
18804;SDS011;9530;48.930;9.526;2023-01-08T06:04:42;2.83;;;2.30;;
18804;SDS011;9530;48.930;9.526;2023-01-08T06:07:09;3.47;;;2.43;;
18804;SDS011;9530;48.930;9.526;2023-01-08T06:09:36;4.20;;;2.60;;
18804;SDS011;9530;48.930;9.526;2023-01-08T06:12:02;4.77;;;2.30;;
18804;SDS011;9530;48.930;9.526;2023-01-08T06:14:29;2.63;;;2.20;;
18804;SDS011;9530;48.930;9.526;2023-01-08T06:16:56;4.13;;;2.30;;
18804;SDS011;9530;48.930;9.526;2023-01-08T06:19:23;4.13;;;2.13;;
18804;SDS011;9530;48.930;9.526;2023-01-08T06:21:51;3.13;;;1.97;;
18804;SDS011;9530;48.930;9.526;2023-01-08T06:24:17;2.87;;;2.10;;
18804;SDS011;9530;48.930;9.526;2023-01-08T06:26:44;2.83;;;2.13;;
18804;SDS011;9530;48.930;9.526;2023-01-08T06:29:10;2.37;;;2.00;;
18804;SDS011;9530;48.930;9.526;2023-01-08T06:31:37;2.90;;;2.40;;
18804;SDS011;9530;48.930;9.526;2023-01-08T06:34:04;6.33;;;2.00;;
18804;SDS011;9530;48.930;9.526;2023-01-08T06:36:30;4.03;;;2.00;;
18804;SDS011;9530;48.930;9.526;2023-01-08T06:38:58;3.23;;;2.10;;
18804;SDS011;9530;48.930;9.526;2023-01-08T06:41:25;2.20;;;1.70;;
18804;SDS011;9530;48.930;9.526;2023-01-08T06:43:52;2.43;;;1.83;;
18804;SDS011;9530;48.930;9.526;2023-01-08T06:46:18;2.03;;;1.60;;
18804;SDS011;9530;48.930;9.526;2023-01-08T06:48:45;1.63;;;1.43;;
18804;SDS011;9530;48.930;9.526;2023-01-08T06:51:11;1.70;;;1.40;;
18804;SDS011;9530;48.930;9.526;2023-01-08T06:53:38;1.90;;;1.50;;
18804;SDS011;9530;48.930;9.526;2023-01-08T06:56:06;2.43;;;1.70;;
18804;SDS011;9530;48.930;9.526;2023-01-08T06:58:35;2.97;;;1.80;;
18804;SDS011;9530;48.930;9.526;2023-01-08T07:01:03;2.93;;;1.73;;
18804;SDS011;9530;48.930;9.526;2023-01-08T07:03:30;2.20;;;1.50;;
18804;SDS011;9530;48.930;9.526;2023-01-08T07:05:57;2.00;;;1.40;;
18804;SDS011;9530;48.930;9.526;2023-01-08T07:08:23;3.70;;;1.30;;
18804;SDS011;9530;48.930;9.526;2023-01-08T07:10:50;1.57;;;1.37;;
18804;SDS011;9530;48.930;9.526;2023-01-08T07:13:18;1.53;;;1.37;;
18804;SDS011;9530;48.930;9.526;2023-01-08T07:15:46;1.47;;;1.30;;
18804;SDS011;9530;48.930;9.526;2023-01-08T07:18:13;1.40;;;1.23;;
18804;SDS011;9530;48.930;9.526;2023-01-08T07:20:39;1.33;;;1.13;;
18804;SDS011;9530;48.930;9.526;2023-01-08T07:23:07;1.40;;;1.03;;
18804;SDS011;9530;48.930;9.526;2023-01-08T07:25:35;1.30;;;0.90;;
18804;SDS011;9530;48.930;9.526;2023-01-08T07:28:02;1.47;;;1.00;;
18804;SDS011;9530;48.930;9.526;2023-01-08T07:30:30;1.17;;;1.00;;
18804;SDS011;9530;48.930;9.526;2023-01-08T07:32:57;1.27;;;1.10;;
18804;SDS011;9530;48.930;9.526;2023-01-08T07:35:25;1.27;;;0.80;;
18804;SDS011;9530;48.930;9.526;2023-01-08T07:37:51;1.30;;;0.90;;
18804;SDS011;9530;48.930;9.526;2023-01-08T07:40:18;1.30;;;1.10;;
18804;SDS011;9530;48.930;9.526;2023-01-08T07:42:45;1.70;;;1.33;;
18804;SDS011;9530;48.930;9.526;2023-01-08T07:45:11;1.63;;;1.47;;
18804;SDS011;9530;48.930;9.526;2023-01-08T07:47:39;1.20;;;1.00;;
18804;SDS011;9530;48.930;9.526;2023-01-08T07:50:06;2.13;;;1.23;;
18804;SDS011;9530;48.930;9.526;2023-01-08T07:52:33;1.60;;;1.20;;
18804;SDS011;9530;48.930;9.526;2023-01-08T07:55:00;1.33;;;1.20;;
18804;SDS011;9530;48.930;9.526;2023-01-08T07:57:27;1.90;;;1.20;;
18804;SDS011;9530;48.930;9.526;2023-01-08T07:59:54;5.17;;;1.33;;
18804;SDS011;9530;48.930;9.526;2023-01-08T08:02:21;1.33;;;1.20;;
18804;SDS011;9530;48.930;9.526;2023-01-08T08:04:49;2.43;;;1.23;;
18804;SDS011;9530;48.930;9.526;2023-01-08T08:07:15;2.97;;;1.20;;
18804;SDS011;9530;48.930;9.526;2023-01-08T08:09:42;3.57;;;1.30;;
18804;SDS011;9530;48.930;9.526;2023-01-08T08:12:09;1.87;;;1.27;;
18804;SDS011;9530;48.930;9.526;2023-01-08T08:14:36;1.77;;;1.43;;
18804;SDS011;9530;48.930;9.526;2023-01-08T08:17:02;2.70;;;1.50;;
18804;SDS011;9530;48.930;9.526;2023-01-08T08:19:29;2.87;;;1.33;;
18804;SDS011;9530;48.930;9.526;2023-01-08T08:21:57;1.70;;;1.20;;
18804;SDS011;9530;48.930;9.526;2023-01-08T08:24:23;3.30;;;1.37;;
18804;SDS011;9530;48.930;9.526;2023-01-08T08:26:50;1.60;;;1.20;;
18804;SDS011;9530;48.930;9.526;2023-01-08T08:29:18;2.63;;;1.30;;
18804;SDS011;9530;48.930;9.526;2023-01-08T08:31:44;1.67;;;1.13;;
18804;SDS011;9530;48.930;9.526;2023-01-08T08:34:11;2.33;;;1.23;;
18804;SDS011;9530;48.930;9.526;2023-01-08T08:36:38;3.20;;;1.30;;
18804;SDS011;9530;48.930;9.526;2023-01-08T08:39:06;4.17;;;1.50;;
18804;SDS011;9530;48.930;9.526;2023-01-08T08:41:33;1.70;;;1.30;;
18804;SDS011;9530;48.930;9.526;2023-01-08T08:44:00;2.70;;;1.33;;
18804;SDS011;9530;48.930;9.526;2023-01-08T08:46:27;2.53;;;1.50;;
18804;SDS011;9530;48.930;9.526;2023-01-08T08:48:54;2.07;;;1.50;;
18804;SDS011;9530;48.930;9.526;2023-01-08T08:51:20;2.50;;;1.37;;
18804;SDS011;9530;48.930;9.526;2023-01-08T08:53:47;2.60;;;1.40;;
18804;SDS011;9530;48.930;9.526;2023-01-08T08:56:15;4.13;;;1.70;;
18804;SDS011;9530;48.930;9.526;2023-01-08T08:58:42;2.03;;;1.40;;
18804;SDS011;9530;48.930;9.526;2023-01-08T09:01:09;7.07;;;4.57;;
18804;SDS011;9530;48.930;9.526;2023-01-08T09:03:36;6.30;;;4.63;;
18804;SDS011;9530;48.930;9.526;2023-01-08T09:06:04;5.63;;;4.13;;
18804;SDS011;9530;48.930;9.526;2023-01-08T09:08:31;4.50;;;3.30;;
18804;SDS011;9530;48.930;9.526;2023-01-08T09:10:57;5.37;;;3.93;;
18804;SDS011;9530;48.930;9.526;2023-01-08T09:13:25;4.33;;;1.70;;
18804;SDS011;9530;48.930;9.526;2023-01-08T09:15:52;2.40;;;1.73;;
18804;SDS011;9530;48.930;9.526;2023-01-08T09:18:18;3.90;;;2.50;;
18804;SDS011;9530;48.930;9.526;2023-01-08T09:20:45;3.47;;;2.17;;
18804;SDS011;9530;48.930;9.526;2023-01-08T09:23:12;1.70;;;1.40;;
18804;SDS011;9530;48.930;9.526;2023-01-08T09:25:38;2.33;;;1.90;;
18804;SDS011;9530;48.930;9.526;2023-01-08T09:28:06;1.93;;;1.60;;
18804;SDS011;9530;48.930;9.526;2023-01-08T09:30:35;3.27;;;2.60;;
18804;SDS011;9530;48.930;9.526;2023-01-08T09:33:02;1.87;;;1.50;;
18804;SDS011;9530;48.930;9.526;2023-01-08T09:35:30;2.40;;;2.13;;
18804;SDS011;9530;48.930;9.526;2023-01-08T09:37:57;3.67;;;2.40;;
18804;SDS011;9530;48.930;9.526;2023-01-08T09:40:27;2.97;;;1.60;;
18804;SDS011;9530;48.930;9.526;2023-01-08T09:42:59;1.97;;;1.40;;
18804;SDS011;9530;48.930;9.526;2023-01-08T09:45:27;1.77;;;1.43;;
18804;SDS011;9530;48.930;9.526;2023-01-08T09:47:58;1.87;;;1.43;;
18804;SDS011;9530;48.930;9.526;2023-01-08T09:50:27;2.17;;;1.30;;
18804;SDS011;9530;48.930;9.526;2023-01-08T09:52:55;2.03;;;1.47;;
18804;SDS011;9530;48.930;9.526;2023-01-08T09:55:22;2.07;;;1.60;;
18804;SDS011;9530;48.930;9.526;2023-01-08T09:57:49;1.97;;;1.60;;
18804;SDS011;9530;48.930;9.526;2023-01-08T10:00:18;5.53;;;1.60;;
18804;SDS011;9530;48.930;9.526;2023-01-08T10:02:49;2.40;;;1.60;;
18804;SDS011;9530;48.930;9.526;2023-01-08T10:05:19;2.43;;;1.50;;
18804;SDS011;9530;48.930;9.526;2023-01-08T10:07:46;1.80;;;1.40;;
18804;SDS011;9530;48.930;9.526;2023-01-08T10:10:17;1.90;;;1.60;;
18804;SDS011;9530;48.930;9.526;2023-01-08T10:12:46;3.27;;;1.47;;
18804;SDS011;9530;48.930;9.526;2023-01-08T10:15:14;1.97;;;1.50;;
18804;SDS011;9530;48.930;9.526;2023-01-08T10:17:44;2.07;;;1.60;;
18804;SDS011;9530;48.930;9.526;2023-01-08T10:20:15;2.33;;;1.50;;
18804;SDS011;9530;48.930;9.526;2023-01-08T10:22:46;2.17;;;1.60;;
18804;SDS011;9530;48.930;9.526;2023-01-08T10:25:14;1.40;;;1.20;;
18804;SDS011;9530;48.930;9.526;2023-01-08T10:27:44;2.43;;;1.50;;
18804;SDS011;9530;48.930;9.526;2023-01-08T10:30:14;2.07;;;1.57;;
18804;SDS011;9530;48.930;9.526;2023-01-08T10:32:46;4.30;;;1.53;;
18804;SDS011;9530;48.930;9.526;2023-01-08T10:35:15;1.67;;;1.30;;
18804;SDS011;9530;48.930;9.526;2023-01-08T10:37:45;2.87;;;1.70;;
18804;SDS011;9530;48.930;9.526;2023-01-08T10:40:19;2.53;;;1.57;;
18804;SDS011;9530;48.930;9.526;2023-01-08T10:42:49;2.53;;;1.50;;
18804;SDS011;9530;48.930;9.526;2023-01-08T10:45:17;3.90;;;3.10;;
18804;SDS011;9530;48.930;9.526;2023-01-08T10:47:46;4.47;;;1.90;;
18804;SDS011;9530;48.930;9.526;2023-01-08T10:50:17;1.97;;;1.67;;
18804;SDS011;9530;48.930;9.526;2023-01-08T10:52:52;1.87;;;1.40;;
18804;SDS011;9530;48.930;9.526;2023-01-08T10:55:23;2.10;;;1.80;;
18804;SDS011;9530;48.930;9.526;2023-01-08T10:57:53;1.63;;;1.37;;
18804;SDS011;9530;48.930;9.526;2023-01-08T11:00:25;3.20;;;2.07;;
18804;SDS011;9530;48.930;9.526;2023-01-08T11:02:53;1.97;;;1.60;;
18804;SDS011;9530;48.930;9.526;2023-01-08T11:05:27;1.90;;;1.40;;
18804;SDS011;9530;48.930;9.526;2023-01-08T11:07:57;1.70;;;1.30;;
18804;SDS011;9530;48.930;9.526;2023-01-08T11:10:26;2.20;;;1.80;;
18804;SDS011;9530;48.930;9.526;2023-01-08T11:12:54;2.27;;;1.67;;
18804;SDS011;9530;48.930;9.526;2023-01-08T11:15:26;1.70;;;1.50;;
18804;SDS011;9530;48.930;9.526;2023-01-08T11:18:02;1.90;;;1.57;;
18804;SDS011;9530;48.930;9.526;2023-01-08T11:20:30;1.60;;;1.30;;
18804;SDS011;9530;48.930;9.526;2023-01-08T11:23:09;2.27;;;1.60;;
18804;SDS011;9530;48.930;9.526;2023-01-08T11:25:47;4.27;;;3.10;;
18804;SDS011;9530;48.930;9.526;2023-01-08T11:28:19;1.47;;;1.20;;
18804;SDS011;9530;48.930;9.526;2023-01-08T11:30:52;1.97;;;1.50;;
18804;SDS011;9530;48.930;9.526;2023-01-08T11:33:24;1.97;;;1.50;;
18804;SDS011;9530;48.930;9.526;2023-01-08T11:35:55;1.87;;;1.50;;
18804;SDS011;9530;48.930;9.526;2023-01-08T11:38:28;1.60;;;1.30;;
18804;SDS011;9530;48.930;9.526;2023-01-08T11:40:57;3.23;;;1.10;;
18804;SDS011;9530;48.930;9.526;2023-01-08T11:43:36;1.30;;;1.10;;
18804;SDS011;9530;48.930;9.526;2023-01-08T11:46:12;2.00;;;1.80;;
18804;SDS011;9530;48.930;9.526;2023-01-08T11:49:05;1.27;;;1.10;;
18804;SDS011;9530;48.930;9.526;2023-01-08T11:51:48;1.57;;;1.33;;
18804;SDS011;9530;48.930;9.526;2023-01-08T11:54:29;3.13;;;1.27;;
18804;SDS011;9530;48.930;9.526;2023-01-08T11:57:09;1.50;;;1.40;;
18804;SDS011;9530;48.930;9.526;2023-01-08T11:59:51;1.53;;;1.30;;
18804;SDS011;9530;48.930;9.526;2023-01-08T12:02:26;1.10;;;0.97;;
18804;SDS011;9530;48.930;9.526;2023-01-08T12:05:22;1.93;;;1.07;;
18804;SDS011;9530;48.930;9.526;2023-01-08T12:07:57;1.30;;;1.07;;
18804;SDS011;9530;48.930;9.526;2023-01-08T12:10:29;2.70;;;1.20;;
18804;SDS011;9530;48.930;9.526;2023-01-08T12:13:22;2.23;;;1.43;;
18804;SDS011;9530;48.930;9.526;2023-01-08T12:16:02;3.17;;;1.93;;
18804;SDS011;9530;48.930;9.526;2023-01-08T12:18:40;3.00;;;2.27;;
18804;SDS011;9530;48.930;9.526;2023-01-08T12:21:25;1.87;;;1.50;;
18804;SDS011;9530;48.930;9.526;2023-01-08T12:24:07;2.03;;;0.97;;
18804;SDS011;9530;48.930;9.526;2023-01-08T12:26:51;2.37;;;1.50;;
18804;SDS011;9530;48.930;9.526;2023-01-08T12:29:33;2.10;;;1.17;;
18804;SDS011;9530;48.930;9.526;2023-01-08T12:32:16;1.13;;;0.93;;
18804;SDS011;9530;48.930;9.526;2023-01-08T12:34:51;1.53;;;1.20;;
18804;SDS011;9530;48.930;9.526;2023-01-08T12:37:23;1.17;;;0.90;;
18804;SDS011;9530;48.930;9.526;2023-01-08T12:39:54;0.70;;;0.70;;
18804;SDS011;9530;48.930;9.526;2023-01-08T12:42:29;0.87;;;0.80;;
18804;SDS011;9530;48.930;9.526;2023-01-08T12:44:59;1.97;;;1.10;;
18804;SDS011;9530;48.930;9.526;2023-01-08T12:47:28;1.67;;;1.03;;
18804;SDS011;9530;48.930;9.526;2023-01-08T12:50:02;1.87;;;1.07;;
18804;SDS011;9530;48.930;9.526;2023-01-08T12:52:43;1.50;;;1.00;;
18804;SDS011;9530;48.930;9.526;2023-01-08T12:55:20;1.60;;;1.20;;
18804;SDS011;9530;48.930;9.526;2023-01-08T12:58:01;2.00;;;1.70;;
18804;SDS011;9530;48.930;9.526;2023-01-08T13:00:39;1.23;;;1.10;;
18804;SDS011;9530;48.930;9.526;2023-01-08T13:03:17;2.00;;;1.70;;
18804;SDS011;9530;48.930;9.526;2023-01-08T13:05:49;1.40;;;1.00;;
18804;SDS011;9530;48.930;9.526;2023-01-08T13:08:24;1.43;;;1.10;;
18804;SDS011;9530;48.930;9.526;2023-01-08T13:10:56;1.37;;;1.10;;
18804;SDS011;9530;48.930;9.526;2023-01-08T13:13:26;1.93;;;1.17;;
18804;SDS011;9530;48.930;9.526;2023-01-08T13:16:07;1.53;;;1.13;;
18804;SDS011;9530;48.930;9.526;2023-01-08T13:18:50;1.90;;;1.40;;
18804;SDS011;9530;48.930;9.526;2023-01-08T13:21:31;1.50;;;1.20;;
18804;SDS011;9530;48.930;9.526;2023-01-08T13:24:01;1.53;;;1.10;;
18804;SDS011;9530;48.930;9.526;2023-01-08T13:26:30;1.37;;;1.00;;
18804;SDS011;9530;48.930;9.526;2023-01-08T13:29:07;1.83;;;1.13;;
18804;SDS011;9530;48.930;9.526;2023-01-08T13:31:50;1.40;;;1.20;;
18804;SDS011;9530;48.930;9.526;2023-01-08T13:34:18;1.93;;;1.13;;
18804;SDS011;9530;48.930;9.526;2023-01-08T13:36:59;1.80;;;1.40;;
18804;SDS011;9530;48.930;9.526;2023-01-08T13:39:31;1.83;;;1.37;;
18804;SDS011;9530;48.930;9.526;2023-01-08T13:42:01;2.03;;;1.40;;
18804;SDS011;9530;48.930;9.526;2023-01-08T13:44:32;1.40;;;1.10;;
18804;SDS011;9530;48.930;9.526;2023-01-08T13:47:05;1.20;;;1.10;;
18804;SDS011;9530;48.930;9.526;2023-01-08T13:49:42;1.80;;;1.37;;
18804;SDS011;9530;48.930;9.526;2023-01-08T13:52:24;1.63;;;1.30;;
18804;SDS011;9530;48.930;9.526;2023-01-08T13:54:52;3.37;;;2.33;;
18804;SDS011;9530;48.930;9.526;2023-01-08T13:57:19;2.33;;;1.50;;
18804;SDS011;9530;48.930;9.526;2023-01-08T13:59:50;1.30;;;1.03;;
18804;SDS011;9530;48.930;9.526;2023-01-08T14:02:23;1.37;;;1.07;;
18804;SDS011;9530;48.930;9.526;2023-01-08T14:04:53;1.20;;;1.10;;
18804;SDS011;9530;48.930;9.526;2023-01-08T14:07:20;1.40;;;1.20;;
18804;SDS011;9530;48.930;9.526;2023-01-08T14:09:48;1.23;;;0.93;;
18804;SDS011;9530;48.930;9.526;2023-01-08T14:12:16;1.30;;;1.03;;
18804;SDS011;9530;48.930;9.526;2023-01-08T14:14:46;1.20;;;1.10;;
18804;SDS011;9530;48.930;9.526;2023-01-08T14:17:16;1.80;;;1.40;;
18804;SDS011;9530;48.930;9.526;2023-01-08T14:19:46;1.80;;;1.50;;
18804;SDS011;9530;48.930;9.526;2023-01-08T14:22:14;1.40;;;1.20;;
18804;SDS011;9530;48.930;9.526;2023-01-08T14:24:44;2.03;;;1.37;;
18804;SDS011;9530;48.930;9.526;2023-01-08T14:27:19;1.50;;;1.30;;
18804;SDS011;9530;48.930;9.526;2023-01-08T14:29:49;3.70;;;2.00;;
18804;SDS011;9530;48.930;9.526;2023-01-08T14:32:17;1.63;;;1.30;;
18804;SDS011;9530;48.930;9.526;2023-01-08T14:34:45;1.40;;;1.20;;
18804;SDS011;9530;48.930;9.526;2023-01-08T14:37:14;1.40;;;1.30;;
18804;SDS011;9530;48.930;9.526;2023-01-08T14:39:42;1.33;;;1.23;;
18804;SDS011;9530;48.930;9.526;2023-01-08T14:42:12;2.70;;;1.20;;
18804;SDS011;9530;48.930;9.526;2023-01-08T14:45:02;2.70;;;1.13;;
18804;SDS011;9530;48.930;9.526;2023-01-08T14:47:32;1.40;;;1.30;;
18804;SDS011;9530;48.930;9.526;2023-01-08T14:50:02;1.50;;;1.10;;
18804;SDS011;9530;48.930;9.526;2023-01-08T14:52:29;1.60;;;1.20;;
18804;SDS011;9530;48.930;9.526;2023-01-08T14:54:57;22.60;;;2.30;;
18804;SDS011;9530;48.930;9.526;2023-01-08T14:57:27;3.90;;;1.40;;
18804;SDS011;9530;48.930;9.526;2023-01-08T14:59:54;5.53;;;1.70;;
18804;SDS011;9530;48.930;9.526;2023-01-08T15:02:26;2.63;;;1.50;;
18804;SDS011;9530;48.930;9.526;2023-01-08T15:04:59;9.57;;;2.00;;
18804;SDS011;9530;48.930;9.526;2023-01-08T15:07:27;5.47;;;1.87;;
18804;SDS011;9530;48.930;9.526;2023-01-08T15:09:54;10.20;;;2.17;;
18804;SDS011;9530;48.930;9.526;2023-01-08T15:12:22;2.30;;;1.20;;
18804;SDS011;9530;48.930;9.526;2023-01-08T15:14:50;3.07;;;1.47;;
18804;SDS011;9530;48.930;9.526;2023-01-08T15:17:19;1.47;;;1.37;;
18804;SDS011;9530;48.930;9.526;2023-01-08T15:19:50;2.10;;;1.50;;